»·PEaware :: N321KL KSNA-KSNA

N321KL :: KSNA-KSNA

FLIGHT INFORMATION

Flight Status: Arrived
Operator: Privately registered:
United States
More flights under this callsign
Pilot: Rafael F. (17538)
Aircraft: CESSNA 172 SKYHAWK
(C172)
More flights by this aircraft type
Origin: KSNA John Wayne-Orange Co
United States
Destination: KSNA John Wayne-Orange Co
United States
More flights between these airports :: More routes between these airports
Route: SLI
File this flight plan on PilotEdge
Remarks:
Altitude:
(Current/Filed)
3,000ft
Speed:
(Current/Filed)
115kts
Departed: 09-Jan-18 05:35 PM
Arrived: 09-Jan-18 05:59 PM
Distance/Time
Traveled:
0nm/0:24
Distance/Time
To Go:
Arrived

Flight Plot

Page will automatically refresh every two minutes.


Map Options




Map Legend


Flown Route
Filed Route
Departure Airport
Arrival Airport
Navaid (VOR, NDB)
Fix

Horizontal Profiles

Position Reports

Time Latitude Longitude Heading Altitude Ground
Speed
09-Jan-18 17:10 33.676260 -117.870861 205 60ft 0kts
09-Jan-18 17:11 33.676260 -117.870861 205 60ft 0kts
09-Jan-18 17:12 33.676094 -117.871219 72 60ft 0kts
09-Jan-18 17:13 33.676096 -117.871211 72 60ft 0kts
09-Jan-18 17:14 33.676096 -117.871211 72 60ft 0kts
09-Jan-18 17:15 33.676096 -117.871211 72 60ft 0kts
09-Jan-18 17:16 33.676096 -117.871211 72 60ft 0kts
09-Jan-18 17:17 33.676096 -117.871211 72 60ft 0kts
09-Jan-18 17:18 33.676096 -117.871211 72 60ft 0kts
09-Jan-18 17:19 33.676096 -117.871211 72 60ft 0kts
09-Jan-18 17:20 33.676096 -117.871211 72 60ft 0kts
09-Jan-18 17:21 33.676096 -117.871211 72 60ft 0kts
09-Jan-18 17:22 33.676096 -117.871211 72 60ft 0kts
09-Jan-18 17:23 33.676096 -117.871211 72 60ft 0kts
09-Jan-18 17:24 33.676096 -117.871211 72 60ft 0kts
09-Jan-18 17:25 33.676096 -117.871211 72 60ft 0kts
09-Jan-18 17:26 33.676096 -117.871211 72 60ft 0kts
09-Jan-18 17:27 33.676096 -117.871211 72 60ft 0kts
09-Jan-18 17:28 33.676096 -117.871211 72 60ft 0kts
09-Jan-18 17:29 33.676096 -117.871211 72 60ft 0kts
09-Jan-18 17:30 33.676096 -117.871211 72 60ft 0kts
09-Jan-18 17:31 33.676096 -117.871211 72 60ft 0kts
09-Jan-18 17:32 33.676096 -117.871211 72 60ft 0kts
09-Jan-18 17:33 33.676116 -117.871118 76 60ft 5kts
09-Jan-18 17:34 33.678575 -117.868520 25 60ft 19kts
09-Jan-18 17:35 33.681224 -117.866403 122 60ft 0kts
09-Jan-18 17:36 33.681224 -117.866403 122 60ft 0kts
09-Jan-18 17:37 33.681224 -117.866403 122 60ft 0kts
09-Jan-18 17:38 33.681224 -117.866403 122 60ft 0kts
09-Jan-18 17:39 33.681224 -117.866403 122 60ft 0kts
09-Jan-18 17:40 33.681224 -117.866403 122 60ft 0kts
09-Jan-18 17:41 33.671910 -117.871244 207 181ft 97kts
09-Jan-18 17:42 33.651506 -117.893224 230 1108ft 100kts
09-Jan-18 17:43 33.634059 -117.919201 230 2003ft 100kts
09-Jan-18 17:44 33.616751 -117.944964 230 2902ft 98kts
09-Jan-18 17:45 33.599369 -117.977195 272 2991ft 128kts
09-Jan-18 17:46 33.628065 -117.985217 21 2999ft 128kts
09-Jan-18 17:47 33.658997 -117.970558 21 2999ft 116kts
09-Jan-18 17:48 33.688765 -117.956437 21 2999ft 115kts
09-Jan-18 17:49 33.718513 -117.942316 21 2999ft 115kts
09-Jan-18 17:50 33.748143 -117.928253 21 2999ft 115kts
09-Jan-18 17:51 33.776982 -117.912035 35 2998ft 115kts
09-Jan-18 17:52 33.803386 -117.890522 32 2999ft 115kts
09-Jan-18 17:53 33.830214 -117.869920 32 2999ft 115kts
09-Jan-18 17:54 33.857178 -117.849167 32 2999ft 115kts
09-Jan-18 17:55 33.868265 -117.816991 91 2999ft 115kts
09-Jan-18 17:56 33.867106 -117.778464 91 2999ft 115kts
09-Jan-18 17:57 33.851618 -117.752171 179 2998ft 114kts
09-Jan-18 17:58 33.821339 -117.760423 219 2998ft 115kts
09-Jan-18 17:59 33.797402 -117.785740 219 3000ft 115kts
09-Jan-18 18:00 33.770777 -117.806625 212 2997ft 105kts
09-Jan-18 18:01 33.751742 -117.820389 209 2844ft 81kts
09-Jan-18 18:02 33.731503 -117.834825 207 2191ft 86kts
09-Jan-18 18:03 33.708577 -117.848095 207 1265ft 96kts
09-Jan-18 18:04 33.686454 -117.862044 207 249ft 85kts
09-Jan-18 18:05 33.678087 -117.868305 295 60ft 0kts
09-Jan-18 18:06 33.678093 -117.868323 291 60ft 2kts

Navigation Log

Ident Type
Flight plan parsing failed, navigation log unavailable